sensor_id;sensor_type;location;lat;lon;timestamp;P1;durP1;ratioP1;P2;durP2;ratioP2
59374;SDS011;45172;55.006;73.460;2024-03-02T00:01:17;3.55;;;1.88;;
59374;SDS011;45172;55.006;73.460;2024-03-02T00:03:44;4.45;;;1.63;;
59374;SDS011;45172;55.006;73.460;2024-03-02T00:06:11;8.80;;;2.25;;
59374;SDS011;45172;55.006;73.460;2024-03-02T00:08:37;3.40;;;2.22;;
59374;SDS011;45172;55.006;73.460;2024-03-02T00:11:04;2.83;;;1.73;;
59374;SDS011;45172;55.006;73.460;2024-03-02T00:13:31;4.00;;;1.83;;
59374;SDS011;45172;55.006;73.460;2024-03-02T00:15:59;3.70;;;1.80;;
59374;SDS011;45172;55.006;73.460;2024-03-02T00:18:32;3.83;;;1.83;;
59374;SDS011;45172;55.006;73.460;2024-03-02T00:21:00;3.15;;;1.77;;
59374;SDS011;45172;55.006;73.460;2024-03-02T00:23:31;3.67;;;1.70;;
59374;SDS011;45172;55.006;73.460;2024-03-02T00:25:59;3.97;;;2.10;;
59374;SDS011;45172;55.006;73.460;2024-03-02T00:28:30;4.40;;;1.85;;
59374;SDS011;45172;55.006;73.460;2024-03-02T00:31:03;2.97;;;1.63;;
59374;SDS011;45172;55.006;73.460;2024-03-02T00:33:34;4.50;;;1.95;;
59374;SDS011;45172;55.006;73.460;2024-03-02T00:36:03;4.03;;;1.85;;
59374;SDS011;45172;55.006;73.460;2024-03-02T00:38:30;2.88;;;2.03;;
59374;SDS011;45172;55.006;73.460;2024-03-02T00:41:17;4.05;;;2.17;;
59374;SDS011;45172;55.006;73.460;2024-03-02T00:44:04;11.13;;;1.83;;
59374;SDS011;45172;55.006;73.460;2024-03-02T00:46:38;5.07;;;2.45;;
59374;SDS011;45172;55.006;73.460;2024-03-02T00:49:17;7.30;;;2.72;;
59374;SDS011;45172;55.006;73.460;2024-03-02T00:51:47;24.88;;;5.55;;
59374;SDS011;45172;55.006;73.460;2024-03-02T00:54:15;2.90;;;1.48;;
59374;SDS011;45172;55.006;73.460;2024-03-02T00:56:45;12.30;;;5.55;;
59374;SDS011;45172;55.006;73.460;2024-03-02T00:59:14;4.75;;;2.53;;
59374;SDS011;45172;55.006;73.460;2024-03-02T01:01:40;3.42;;;2.17;;
59374;SDS011;45172;55.006;73.460;2024-03-02T01:04:07;6.75;;;3.00;;
59374;SDS011;45172;55.006;73.460;2024-03-02T01:06:34;3.85;;;1.67;;
59374;SDS011;45172;55.006;73.460;2024-03-02T01:09:01;5.35;;;1.98;;
59374;SDS011;45172;55.006;73.460;2024-03-02T01:11:28;3.47;;;1.73;;
59374;SDS011;45172;55.006;73.460;2024-03-02T01:13:55;4.50;;;2.20;;
59374;SDS011;45172;55.006;73.460;2024-03-02T01:16:22;6.35;;;2.17;;
59374;SDS011;45172;55.006;73.460;2024-03-02T01:18:48;6.18;;;2.08;;
59374;SDS011;45172;55.006;73.460;2024-03-02T01:21:15;2.63;;;1.35;;
59374;SDS011;45172;55.006;73.460;2024-03-02T01:23:41;2.50;;;1.33;;
59374;SDS011;45172;55.006;73.460;2024-03-02T01:26:08;4.03;;;1.42;;
59374;SDS011;45172;55.006;73.460;2024-03-02T01:28:34;2.25;;;1.50;;
59374;SDS011;45172;55.006;73.460;2024-03-02T01:31:01;6.15;;;2.38;;
59374;SDS011;45172;55.006;73.460;2024-03-02T01:33:28;2.15;;;1.25;;
59374;SDS011;45172;55.006;73.460;2024-03-02T01:35:54;3.85;;;2.08;;
59374;SDS011;45172;55.006;73.460;2024-03-02T01:38:21;6.43;;;3.28;;
59374;SDS011;45172;55.006;73.460;2024-03-02T01:40:47;9.13;;;4.82;;
59374;SDS011;45172;55.006;73.460;2024-03-02T01:43:14;60.55;;;22.60;;
59374;SDS011;45172;55.006;73.460;2024-03-02T01:45:40;22.73;;;9.77;;
59374;SDS011;45172;55.006;73.460;2024-03-02T01:48:07;8.07;;;4.18;;
59374;SDS011;45172;55.006;73.460;2024-03-02T01:50:34;11.45;;;1.35;;
59374;SDS011;45172;55.006;73.460;2024-03-02T01:53:01;4.53;;;1.52;;
59374;SDS011;45172;55.006;73.460;2024-03-02T01:55:30;2.78;;;1.20;;
59374;SDS011;45172;55.006;73.460;2024-03-02T01:57:57;2.47;;;1.20;;
59374;SDS011;45172;55.006;73.460;2024-03-02T02:00:24;1.48;;;0.95;;
59374;SDS011;45172;55.006;73.460;2024-03-02T02:02:52;4.25;;;1.77;;
59374;SDS011;45172;55.006;73.460;2024-03-02T02:05:19;1.58;;;1.30;;
59374;SDS011;45172;55.006;73.460;2024-03-02T02:07:46;7.43;;;0.90;;
59374;SDS011;45172;55.006;73.460;2024-03-02T02:10:12;1.33;;;0.80;;
59374;SDS011;45172;55.006;73.460;2024-03-02T02:12:39;2.13;;;1.00;;
59374;SDS011;45172;55.006;73.460;2024-03-02T02:15:27;1.23;;;1.10;;
59374;SDS011;45172;55.006;73.460;2024-03-02T02:17:53;4.57;;;1.10;;
59374;SDS011;45172;55.006;73.460;2024-03-02T02:20:20;24.35;;;5.80;;
59374;SDS011;45172;55.006;73.460;2024-03-02T02:22:54;25.02;;;7.90;;
59374;SDS011;45172;55.006;73.460;2024-03-02T02:25:20;10.93;;;3.15;;
59374;SDS011;45172;55.006;73.460;2024-03-02T02:27:46;8.48;;;4.13;;
59374;SDS011;45172;55.006;73.460;2024-03-02T02:30:13;8.13;;;2.95;;
59374;SDS011;45172;55.006;73.460;2024-03-02T02:32:43;2.75;;;1.70;;
59374;SDS011;45172;55.006;73.460;2024-03-02T02:35:10;3.20;;;1.30;;
59374;SDS011;45172;55.006;73.460;2024-03-02T02:37:36;3.30;;;1.60;;
59374;SDS011;45172;55.006;73.460;2024-03-02T02:40:03;9.88;;;4.78;;
59374;SDS011;45172;55.006;73.460;2024-03-02T02:42:30;5.38;;;1.92;;
59374;SDS011;45172;55.006;73.460;2024-03-02T02:44:56;4.20;;;1.70;;
59374;SDS011;45172;55.006;73.460;2024-03-02T02:47:23;2.17;;;1.40;;
59374;SDS011;45172;55.006;73.460;2024-03-02T02:49:50;3.42;;;1.30;;
59374;SDS011;45172;55.006;73.460;2024-03-02T02:52:17;3.53;;;1.23;;
59374;SDS011;45172;55.006;73.460;2024-03-02T02:54:44;8.55;;;1.20;;
59374;SDS011;45172;55.006;73.460;2024-03-02T02:57:10;3.53;;;1.35;;
59374;SDS011;45172;55.006;73.460;2024-03-02T02:59:37;2.63;;;1.23;;
59374;SDS011;45172;55.006;73.460;2024-03-02T03:02:03;1.70;;;1.10;;
59374;SDS011;45172;55.006;73.460;2024-03-02T03:04:29;4.50;;;1.67;;
59374;SDS011;45172;55.006;73.460;2024-03-02T03:06:56;9.20;;;2.22;;
59374;SDS011;45172;55.006;73.460;2024-03-02T03:09:22;21.02;;;8.20;;
59374;SDS011;45172;55.006;73.460;2024-03-02T03:11:48;22.40;;;10.43;;
59374;SDS011;45172;55.006;73.460;2024-03-02T03:14:15;21.45;;;11.73;;
59374;SDS011;45172;55.006;73.460;2024-03-02T03:16:41;11.55;;;4.20;;
59374;SDS011;45172;55.006;73.460;2024-03-02T03:19:08;17.75;;;7.57;;
59374;SDS011;45172;55.006;73.460;2024-03-02T03:21:34;14.90;;;5.22;;
59374;SDS011;45172;55.006;73.460;2024-03-02T03:24:00;44.42;;;16.73;;
59374;SDS011;45172;55.006;73.460;2024-03-02T03:26:27;51.45;;;20.42;;
59374;SDS011;45172;55.006;73.460;2024-03-02T03:28:53;86.25;;;32.50;;
59374;SDS011;45172;55.006;73.460;2024-03-02T03:31:19;77.10;;;25.33;;
59374;SDS011;45172;55.006;73.460;2024-03-02T03:33:46;114.50;;;43.13;;
59374;SDS011;45172;55.006;73.460;2024-03-02T03:36:12;43.92;;;13.50;;
59374;SDS011;45172;55.006;73.460;2024-03-02T03:38:39;186.52;;;61.05;;
59374;SDS011;45172;55.006;73.460;2024-03-02T03:41:06;104.25;;;30.55;;
59374;SDS011;45172;55.006;73.460;2024-03-02T03:43:32;224.38;;;63.28;;
59374;SDS011;45172;55.006;73.460;2024-03-02T03:45:58;141.25;;;49.80;;
59374;SDS011;45172;55.006;73.460;2024-03-02T03:48:24;13.10;;;5.50;;
59374;SDS011;45172;55.006;73.460;2024-03-02T03:50:56;3.25;;;1.35;;
59374;SDS011;45172;55.006;73.460;2024-03-02T03:53:22;67.35;;;20.88;;
59374;SDS011;45172;55.006;73.460;2024-03-02T03:55:50;55.40;;;20.45;;
59374;SDS011;45172;55.006;73.460;2024-03-02T03:58:16;18.42;;;6.57;;
59374;SDS011;45172;55.006;73.460;2024-03-02T04:00:44;42.17;;;14.27;;
59374;SDS011;45172;55.006;73.460;2024-03-02T04:03:10;82.53;;;25.65;;
59374;SDS011;45172;55.006;73.460;2024-03-02T04:05:36;20.80;;;7.80;;
59374;SDS011;45172;55.006;73.460;2024-03-02T04:08:04;5.43;;;2.33;;
59374;SDS011;45172;55.006;73.460;2024-03-02T04:10:31;4.43;;;1.40;;
59374;SDS011;45172;55.006;73.460;2024-03-02T04:12:57;2.85;;;1.60;;
59374;SDS011;45172;55.006;73.460;2024-03-02T04:15:24;1.35;;;1.20;;
59374;SDS011;45172;55.006;73.460;2024-03-02T04:17:50;7.82;;;1.73;;
59374;SDS011;45172;55.006;73.460;2024-03-02T04:20:17;2.38;;;1.00;;
59374;SDS011;45172;55.006;73.460;2024-03-02T04:22:43;1.10;;;0.80;;
59374;SDS011;45172;55.006;73.460;2024-03-02T04:25:10;3.63;;;1.52;;
59374;SDS011;45172;55.006;73.460;2024-03-02T04:27:37;1.83;;;1.27;;
59374;SDS011;45172;55.006;73.460;2024-03-02T04:30:04;2.88;;;1.48;;
59374;SDS011;45172;55.006;73.460;2024-03-02T04:32:31;2.60;;;1.17;;
59374;SDS011;45172;55.006;73.460;2024-03-02T04:34:57;4.32;;;1.77;;
59374;SDS011;45172;55.006;73.460;2024-03-02T04:37:24;4.43;;;1.88;;
59374;SDS011;45172;55.006;73.460;2024-03-02T04:39:50;1.40;;;0.90;;
59374;SDS011;45172;55.006;73.460;2024-03-02T04:42:16;5.53;;;2.22;;
59374;SDS011;45172;55.006;73.460;2024-03-02T04:44:42;2.70;;;1.23;;
59374;SDS011;45172;55.006;73.460;2024-03-02T04:47:08;3.42;;;0.77;;
59374;SDS011;45172;55.006;73.460;2024-03-02T04:49:35;2.08;;;0.90;;
59374;SDS011;45172;55.006;73.460;2024-03-02T04:52:01;2.50;;;1.05;;
59374;SDS011;45172;55.006;73.460;2024-03-02T04:54:27;4.82;;;0.98;;
59374;SDS011;45172;55.006;73.460;2024-03-02T04:56:54;2.78;;;1.27;;
59374;SDS011;45172;55.006;73.460;2024-03-02T04:59:20;1.98;;;1.13;;
59374;SDS011;45172;55.006;73.460;2024-03-02T05:01:46;1.85;;;1.02;;
59374;SDS011;45172;55.006;73.460;2024-03-02T05:04:13;4.18;;;0.90;;
59374;SDS011;45172;55.006;73.460;2024-03-02T05:06:41;2.30;;;0.85;;
59374;SDS011;45172;55.006;73.460;2024-03-02T05:09:08;3.25;;;1.30;;
59374;SDS011;45172;55.006;73.460;2024-03-02T05:11:34;2.50;;;1.38;;
59374;SDS011;45172;55.006;73.460;2024-03-02T05:14:04;2.97;;;1.00;;
59374;SDS011;45172;55.006;73.460;2024-03-02T05:16:34;3.38;;;1.35;;
59374;SDS011;45172;55.006;73.460;2024-03-02T05:19:02;14.70;;;3.90;;
59374;SDS011;45172;55.006;73.460;2024-03-02T05:21:28;8.10;;;3.55;;
59374;SDS011;45172;55.006;73.460;2024-03-02T05:23:54;15.60;;;4.90;;
59374;SDS011;45172;55.006;73.460;2024-03-02T05:26:21;2.08;;;1.30;;
59374;SDS011;45172;55.006;73.460;2024-03-02T05:28:47;2.40;;;1.05;;
59374;SDS011;45172;55.006;73.460;2024-03-02T05:31:17;3.38;;;0.90;;
59374;SDS011;45172;55.006;73.460;2024-03-02T05:33:43;2.45;;;1.17;;
59374;SDS011;45172;55.006;73.460;2024-03-02T05:36:10;2.47;;;1.45;;
59374;SDS011;45172;55.006;73.460;2024-03-02T05:38:36;5.88;;;2.33;;
59374;SDS011;45172;55.006;73.460;2024-03-02T05:41:03;5.40;;;2.28;;
59374;SDS011;45172;55.006;73.460;2024-03-02T05:43:30;5.70;;;2.35;;
59374;SDS011;45172;55.006;73.460;2024-03-02T05:45:56;3.75;;;1.42;;
59374;SDS011;45172;55.006;73.460;2024-03-02T05:48:23;4.55;;;1.95;;
59374;SDS011;45172;55.006;73.460;2024-03-02T05:50:49;1.83;;;1.02;;
59374;SDS011;45172;55.006;73.460;2024-03-02T05:53:15;4.75;;;1.83;;
59374;SDS011;45172;55.006;73.460;2024-03-02T05:55:42;7.20;;;2.50;;
59374;SDS011;45172;55.006;73.460;2024-03-02T05:58:08;3.38;;;1.63;;
59374;SDS011;45172;55.006;73.460;2024-03-02T06:00:46;2.92;;;1.55;;
59374;SDS011;45172;55.006;73.460;2024-03-02T06:03:13;2.67;;;1.67;;
59374;SDS011;45172;55.006;73.460;2024-03-02T06:05:39;5.90;;;2.55;;
59374;SDS011;45172;55.006;73.460;2024-03-02T06:08:06;6.82;;;2.22;;
59374;SDS011;45172;55.006;73.460;2024-03-02T06:10:33;7.50;;;2.45;;
59374;SDS011;45172;55.006;73.460;2024-03-02T06:12:59;3.50;;;1.75;;
59374;SDS011;45172;55.006;73.460;2024-03-02T06:15:25;3.45;;;1.55;;
59374;SDS011;45172;55.006;73.460;2024-03-02T06:17:54;3.80;;;1.27;;
59374;SDS011;45172;55.006;73.460;2024-03-02T06:20:20;4.80;;;2.03;;
59374;SDS011;45172;55.006;73.460;2024-03-02T06:22:47;5.63;;;1.90;;
59374;SDS011;45172;55.006;73.460;2024-03-02T06:25:13;8.85;;;3.42;;
59374;SDS011;45172;55.006;73.460;2024-03-02T06:27:39;14.75;;;4.60;;
59374;SDS011;45172;55.006;73.460;2024-03-02T06:30:06;13.80;;;4.97;;
59374;SDS011;45172;55.006;73.460;2024-03-02T06:32:34;4.63;;;1.73;;
59374;SDS011;45172;55.006;73.460;2024-03-02T06:35:01;15.68;;;4.40;;
59374;SDS011;45172;55.006;73.460;2024-03-02T06:37:27;5.28;;;2.15;;
59374;SDS011;45172;55.006;73.460;2024-03-02T06:39:53;18.10;;;4.93;;
59374;SDS011;45172;55.006;73.460;2024-03-02T06:42:20;7.47;;;2.95;;
59374;SDS011;45172;55.006;73.460;2024-03-02T06:44:46;3.85;;;1.80;;
59374;SDS011;45172;55.006;73.460;2024-03-02T06:47:12;4.90;;;2.30;;
59374;SDS011;45172;55.006;73.460;2024-03-02T06:49:39;11.90;;;3.03;;
59374;SDS011;45172;55.006;73.460;2024-03-02T06:52:05;6.78;;;1.98;;
59374;SDS011;45172;55.006;73.460;2024-03-02T06:54:32;12.55;;;4.20;;
59374;SDS011;45172;55.006;73.460;2024-03-02T06:57:00;7.78;;;2.97;;
59374;SDS011;45172;55.006;73.460;2024-03-02T06:59:27;12.57;;;4.60;;
59374;SDS011;45172;55.006;73.460;2024-03-02T07:01:53;9.63;;;4.15;;
59374;SDS011;45172;55.006;73.460;2024-03-02T07:04:19;6.53;;;2.80;;
59374;SDS011;45172;55.006;73.460;2024-03-02T07:06:45;9.90;;;3.95;;
59374;SDS011;45172;55.006;73.460;2024-03-02T07:09:14;6.53;;;2.75;;
59374;SDS011;45172;55.006;73.460;2024-03-02T07:11:41;8.68;;;3.70;;
59374;SDS011;45172;55.006;73.460;2024-03-02T07:14:07;10.77;;;2.90;;
59374;SDS011;45172;55.006;73.460;2024-03-02T07:16:34;5.97;;;3.15;;
59374;SDS011;45172;55.006;73.460;2024-03-02T07:19:04;7.18;;;3.42;;
59374;SDS011;45172;55.006;73.460;2024-03-02T07:21:30;15.15;;;5.65;;
59374;SDS011;45172;55.006;73.460;2024-03-02T07:23:58;13.23;;;4.30;;
59374;SDS011;45172;55.006;73.460;2024-03-02T07:26:25;22.27;;;6.90;;
59374;SDS011;45172;55.006;73.460;2024-03-02T07:28:52;5.25;;;2.25;;
59374;SDS011;45172;55.006;73.460;2024-03-02T07:31:18;15.80;;;6.20;;
59374;SDS011;45172;55.006;73.460;2024-03-02T07:33:45;11.27;;;4.30;;
59374;SDS011;45172;55.006;73.460;2024-03-02T07:36:12;11.85;;;4.82;;
59374;SDS011;45172;55.006;73.460;2024-03-02T07:38:39;7.68;;;2.75;;
59374;SDS011;45172;55.006;73.460;2024-03-02T07:41:07;4.97;;;2.78;;
59374;SDS011;45172;55.006;73.460;2024-03-02T07:43:34;4.18;;;2.15;;
59374;SDS011;45172;55.006;73.460;2024-03-02T07:46:00;6.90;;;2.70;;
59374;SDS011;45172;55.006;73.460;2024-03-02T07:48:28;5.43;;;2.65;;
59374;SDS011;45172;55.006;73.460;2024-03-02T07:50:55;3.90;;;1.92;;
59374;SDS011;45172;55.006;73.460;2024-03-02T07:53:22;11.50;;;4.15;;
59374;SDS011;45172;55.006;73.460;2024-03-02T07:55:48;6.82;;;2.67;;
59374;SDS011;45172;55.006;73.460;2024-03-02T07:58:15;9.50;;;3.17;;
59374;SDS011;45172;55.006;73.460;2024-03-02T08:00:41;8.45;;;2.92;;
59374;SDS011;45172;55.006;73.460;2024-03-02T08:03:08;6.15;;;2.83;;
59374;SDS011;45172;55.006;73.460;2024-03-02T08:05:37;24.77;;;6.20;;
59374;SDS011;45172;55.006;73.460;2024-03-02T08:08:04;34.42;;;8.32;;
59374;SDS011;45172;55.006;73.460;2024-03-02T08:10:31;55.50;;;12.10;;
59374;SDS011;45172;55.006;73.460;2024-03-02T08:12:59;22.63;;;7.65;;
59374;SDS011;45172;55.006;73.460;2024-03-02T08:15:25;11.75;;;4.43;;
59374;SDS011;45172;55.006;73.460;2024-03-02T08:17:52;11.70;;;3.88;;
59374;SDS011;45172;55.006;73.460;2024-03-02T08:20:18;5.90;;;2.42;;
59374;SDS011;45172;55.006;73.460;2024-03-02T08:22:44;8.93;;;2.35;;
59374;SDS011;45172;55.006;73.460;2024-03-02T08:25:12;7.03;;;4.10;;
59374;SDS011;45172;55.006;73.460;2024-03-02T08:27:40;7.95;;;2.65;;
59374;SDS011;45172;55.006;73.460;2024-03-02T08:30:06;3.45;;;2.20;;
59374;SDS011;45172;55.006;73.460;2024-03-02T08:32:34;9.68;;;3.63;;
59374;SDS011;45172;55.006;73.460;2024-03-02T08:35:00;9.48;;;3.42;;
59374;SDS011;45172;55.006;73.460;2024-03-02T08:37:26;8.63;;;4.38;;
59374;SDS011;45172;55.006;73.460;2024-03-02T08:39:53;3.85;;;2.53;;
59374;SDS011;45172;55.006;73.460;2024-03-02T08:42:20;5.50;;;2.50;;
59374;SDS011;45172;55.006;73.460;2024-03-02T08:44:46;5.20;;;2.63;;
59374;SDS011;45172;55.006;73.460;2024-03-02T08:47:13;4.47;;;2.33;;
59374;SDS011;45172;55.006;73.460;2024-03-02T08:49:40;7.43;;;2.42;;
59374;SDS011;45172;55.006;73.460;2024-03-02T08:52:06;3.53;;;2.15;;
59374;SDS011;45172;55.006;73.460;2024-03-02T08:54:32;4.25;;;1.98;;
59374;SDS011;45172;55.006;73.460;2024-03-02T08:57:01;4.90;;;2.30;;
59374;SDS011;45172;55.006;73.460;2024-03-02T08:59:27;3.97;;;1.80;;
59374;SDS011;45172;55.006;73.460;2024-03-02T09:01:54;3.90;;;1.85;;
59374;SDS011;45172;55.006;73.460;2024-03-02T09:04:20;4.22;;;2.25;;
59374;SDS011;45172;55.006;73.460;2024-03-02T09:06:47;6.45;;;2.20;;
59374;SDS011;45172;55.006;73.460;2024-03-02T09:09:14;4.53;;;2.50;;
59374;SDS011;45172;55.006;73.460;2024-03-02T09:11:40;3.65;;;2.25;;
59374;SDS011;45172;55.006;73.460;2024-03-02T09:14:06;5.47;;;2.50;;
59374;SDS011;45172;55.006;73.460;2024-03-02T09:16:33;6.43;;;2.25;;
59374;SDS011;45172;55.006;73.460;2024-03-02T09:18:59;12.80;;;3.50;;
59374;SDS011;45172;55.006;73.460;2024-03-02T09:21:26;5.22;;;2.42;;
59374;SDS011;45172;55.006;73.460;2024-03-02T09:23:52;9.35;;;5.38;;
59374;SDS011;45172;55.006;73.460;2024-03-02T09:26:19;8.63;;;3.03;;
59374;SDS011;45172;55.006;73.460;2024-03-02T09:28:46;8.88;;;2.47;;
59374;SDS011;45172;55.006;73.460;2024-03-02T09:31:12;6.15;;;2.60;;
59374;SDS011;45172;55.006;73.460;2024-03-02T09:33:39;2.00;;;1.40;;
59374;SDS011;45172;55.006;73.460;2024-03-02T09:36:05;6.20;;;2.00;;
59374;SDS011;45172;55.006;73.460;2024-03-02T09:38:43;2.88;;;1.30;;
59374;SDS011;45172;55.006;73.460;2024-03-02T09:41:10;3.85;;;1.45;;
59374;SDS011;45172;55.006;73.460;2024-03-02T09:43:38;2.90;;;1.70;;
59374;SDS011;45172;55.006;73.460;2024-03-02T09:46:06;3.63;;;1.77;;
59374;SDS011;45172;55.006;73.460;2024-03-02T09:48:35;3.33;;;1.50;;
59374;SDS011;45172;55.006;73.460;2024-03-02T09:51:05;2.45;;;1.45;;
59374;SDS011;45172;55.006;73.460;2024-03-02T09:53:32;6.25;;;1.98;;
59374;SDS011;45172;55.006;73.460;2024-03-02T09:56:00;2.70;;;1.40;;
59374;SDS011;45172;55.006;73.460;2024-03-02T09:58:26;3.88;;;1.52;;
59374;SDS011;45172;55.006;73.460;2024-03-02T10:00:53;3.47;;;1.80;;
59374;SDS011;45172;55.006;73.460;2024-03-02T10:03:19;3.22;;;1.50;;
59374;SDS011;45172;55.006;73.460;2024-03-02T10:05:46;2.42;;;1.30;;
59374;SDS011;45172;55.006;73.460;2024-03-02T10:08:13;2.25;;;1.60;;
59374;SDS011;45172;55.006;73.460;2024-03-02T10:10:39;2.53;;;1.42;;
59374;SDS011;45172;55.006;73.460;2024-03-02T10:13:08;3.92;;;1.55;;
59374;SDS011;45172;55.006;73.460;2024-03-02T10:15:39;2.25;;;1.23;;
59374;SDS011;45172;55.006;73.460;2024-03-02T10:18:09;1.80;;;1.17;;
59374;SDS011;45172;55.006;73.460;2024-03-02T10:20:41;2.42;;;1.27;;
59374;SDS011;45172;55.006;73.460;2024-03-02T10:23:13;2.90;;;1.58;;
59374;SDS011;45172;55.006;73.460;2024-03-02T10:25:41;3.08;;;1.63;;
59374;SDS011;45172;55.006;73.460;2024-03-02T10:28:09;3.38;;;1.33;;
59374;SDS011;45172;55.006;73.460;2024-03-02T10:30:35;9.10;;;2.28;;
59374;SDS011;45172;55.006;73.460;2024-03-02T10:33:03;2.28;;;1.40;;
59374;SDS011;45172;55.006;73.460;2024-03-02T10:35:32;4.00;;;1.85;;
59374;SDS011;45172;55.006;73.460;2024-03-02T10:38:03;9.05;;;3.17;;
59374;SDS011;45172;55.006;73.460;2024-03-02T10:40:31;7.30;;;3.55;;
59374;SDS011;45172;55.006;73.460;2024-03-02T10:42:57;7.20;;;3.67;;
59374;SDS011;45172;55.006;73.460;2024-03-02T10:45:25;4.65;;;2.55;;
59374;SDS011;45172;55.006;73.460;2024-03-02T10:47:52;3.38;;;1.70;;
59374;SDS011;45172;55.006;73.460;2024-03-02T10:50:19;3.88;;;2.33;;
59374;SDS011;45172;55.006;73.460;2024-03-02T10:52:46;8.45;;;4.47;;
59374;SDS011;45172;55.006;73.460;2024-03-02T10:55:13;12.48;;;8.00;;
59374;SDS011;45172;55.006;73.460;2024-03-02T10:57:45;3.00;;;1.77;;
59374;SDS011;45172;55.006;73.460;2024-03-02T11:00:17;1.77;;;1.10;;
59374;SDS011;45172;55.006;73.460;2024-03-02T11:02:52;4.35;;;1.67;;
59374;SDS011;45172;55.006;73.460;2024-03-02T11:05:33;2.42;;;1.05;;
59374;SDS011;45172;55.006;73.460;2024-03-02T11:08:02;4.18;;;2.13;;
59374;SDS011;45172;55.006;73.460;2024-03-02T11:10:45;6.20;;;2.28;;
59374;SDS011;45172;55.006;73.460;2024-03-02T11:13:16;5.35;;;1.83;;
59374;SDS011;45172;55.006;73.460;2024-03-02T11:15:51;5.95;;;3.25;;
59374;SDS011;45172;55.006;73.460;2024-03-02T11:18:21;4.55;;;1.95;;
59374;SDS011;45172;55.006;73.460;2024-03-02T11:20:48;8.00;;;2.88;;
59374;SDS011;45172;55.006;73.460;2024-03-02T11:23:15;8.38;;;2.25;;
59374;SDS011;45172;55.006;73.460;2024-03-02T11:25:42;11.73;;;6.45;;
59374;SDS011;45172;55.006;73.460;2024-03-02T11:28:08;53.65;;;19.73;;
59374;SDS011;45172;55.006;73.460;2024-03-02T11:33:04;16.65;;;7.20;;
59374;SDS011;45172;55.006;73.460;2024-03-02T11:35:35;11.77;;;4.72;;
59374;SDS011;45172;55.006;73.460;2024-03-02T11:38:11;3.33;;;2.10;;
59374;SDS011;45172;55.006;73.460;2024-03-02T11:41:40;7.97;;;3.95;;
59374;SDS011;45172;55.006;73.460;2024-03-02T11:44:07;71.35;;;24.13;;
59374;SDS011;45172;55.006;73.460;2024-03-02T11:46:39;21.88;;;13.15;;
59374;SDS011;45172;55.006;73.460;2024-03-02T11:49:06;11.02;;;4.55;;
59374;SDS011;45172;55.006;73.460;2024-03-02T11:51:33;110.35;;;44.95;;
59374;SDS011;45172;55.006;73.460;2024-03-02T11:54:01;22.77;;;9.93;;
59374;SDS011;45172;55.006;73.460;2024-03-02T11:56:30;13.68;;;6.43;;
59374;SDS011;45172;55.006;73.460;2024-03-02T11:58:57;6.80;;;4.53;;
59374;SDS011;45172;55.006;73.460;2024-03-02T12:01:23;8.48;;;3.60;;
59374;SDS011;45172;55.006;73.460;2024-03-02T12:03:50;7.45;;;3.28;;
59374;SDS011;45172;55.006;73.460;2024-03-02T12:06:18;15.93;;;4.47;;
59374;SDS011;45172;55.006;73.460;2024-03-02T12:08:46;25.80;;;8.98;;
59374;SDS011;45172;55.006;73.460;2024-03-02T12:11:18;285.58;;;97.22;;
59374;SDS011;45172;55.006;73.460;2024-03-02T12:13:52;93.22;;;32.55;;
59374;SDS011;45172;55.006;73.460;2024-03-02T12:16:26;213.90;;;74.32;;
59374;SDS011;45172;55.006;73.460;2024-03-02T12:18:52;54.40;;;20.50;;
59374;SDS011;45172;55.006;73.460;2024-03-02T12:21:18;270.17;;;120.03;;
59374;SDS011;45172;55.006;73.460;2024-03-02T12:23:45;20.38;;;7.60;;
59374;SDS011;45172;55.006;73.460;2024-03-02T12:26:11;107.55;;;40.65;;
59374;SDS011;45172;55.006;73.460;2024-03-02T12:28:38;56.22;;;25.23;;
59374;SDS011;45172;55.006;73.460;2024-03-02T12:31:04;248.13;;;90.07;;
59374;SDS011;45172;55.006;73.460;2024-03-02T12:33:30;672.78;;;318.83;;
59374;SDS011;45172;55.006;73.460;2024-03-02T12:35:57;512.83;;;219.75;;
59374;SDS011;45172;55.006;73.460;2024-03-02T12:38:24;378.48;;;139.15;;
59374;SDS011;45172;55.006;73.460;2024-03-02T12:40:52;202.23;;;66.60;;
59374;SDS011;45172;55.006;73.460;2024-03-02T12:43:18;162.90;;;62.83;;
59374;SDS011;45172;55.006;73.460;2024-03-02T12:45:45;141.52;;;43.08;;
59374;SDS011;45172;55.006;73.460;2024-03-02T12:48:23;110.85;;;34.40;;
59374;SDS011;45172;55.006;73.460;2024-03-02T12:50:49;63.15;;;22.10;;
59374;SDS011;45172;55.006;73.460;2024-03-02T12:53:15;826.08;;;376.33;;
59374;SDS011;45172;55.006;73.460;2024-03-02T12:55:42;434.20;;;142.50;;
59374;SDS011;45172;55.006;73.460;2024-03-02T12:58:19;332.35;;;123.70;;
59374;SDS011;45172;55.006;73.460;2024-03-02T13:00:49;145.40;;;55.80;;
59374;SDS011;45172;55.006;73.460;2024-03-02T13:03:36;123.28;;;49.10;;
59374;SDS011;45172;55.006;73.460;2024-03-02T13:06:04;32.33;;;15.82;;
59374;SDS011;45172;55.006;73.460;2024-03-02T13:08:51;13.80;;;5.70;;
59374;SDS011;45172;55.006;73.460;2024-03-02T13:11:18;36.78;;;12.68;;
59374;SDS011;45172;55.006;73.460;2024-03-02T13:13:45;13.90;;;5.75;;
59374;SDS011;45172;55.006;73.460;2024-03-02T13:16:14;25.85;;;11.85;;
59374;SDS011;45172;55.006;73.460;2024-03-02T13:18:42;222.73;;;77.00;;
59374;SDS011;45172;55.006;73.460;2024-03-02T13:21:25;35.05;;;13.90;;
59374;SDS011;45172;55.006;73.460;2024-03-02T13:24:01;298.83;;;105.75;;
59374;SDS011;45172;55.006;73.460;2024-03-02T13:26:28;96.38;;;33.40;;
59374;SDS011;45172;55.006;73.460;2024-03-02T13:28:55;50.17;;;21.92;;
59374;SDS011;45172;55.006;73.460;2024-03-02T13:31:21;39.05;;;13.07;;
59374;SDS011;45172;55.006;73.460;2024-03-02T13:33:48;35.92;;;13.05;;
59374;SDS011;45172;55.006;73.460;2024-03-02T13:36:14;36.72;;;13.93;;
59374;SDS011;45172;55.006;73.460;2024-03-02T13:38:40;57.08;;;20.20;;
59374;SDS011;45172;55.006;73.460;2024-03-02T13:41:19;45.10;;;16.83;;
59374;SDS011;45172;55.006;73.460;2024-03-02T13:44:01;44.30;;;17.27;;
59374;SDS011;45172;55.006;73.460;2024-03-02T13:46:27;25.20;;;9.25;;
59374;SDS011;45172;55.006;73.460;2024-03-02T13:48:54;32.08;;;12.05;;
59374;SDS011;45172;55.006;73.460;2024-03-02T13:51:21;23.27;;;9.25;;
59374;SDS011;45172;55.006;73.460;2024-03-02T13:53:47;17.30;;;7.47;;
59374;SDS011;45172;55.006;73.460;2024-03-02T13:56:13;12.63;;;4.57;;
59374;SDS011;45172;55.006;73.460;2024-03-02T13:59:01;7.20;;;3.30;;
59374;SDS011;45172;55.006;73.460;2024-03-02T14:01:27;7.25;;;3.03;;
59374;SDS011;45172;55.006;73.460;2024-03-02T14:03:53;12.90;;;3.83;;
59374;SDS011;45172;55.006;73.460;2024-03-02T14:06:36;11.27;;;3.92;;
59374;SDS011;45172;55.006;73.460;2024-03-02T14:09:03;6.20;;;3.10;;
59374;SDS011;45172;55.006;73.460;2024-03-02T14:11:29;5.13;;;1.88;;
59374;SDS011;45172;55.006;73.460;2024-03-02T14:13:55;2.63;;;1.63;;
59374;SDS011;45172;55.006;73.460;2024-03-02T14:16:22;3.00;;;1.63;;
59374;SDS011;45172;55.006;73.460;2024-03-02T14:18:48;3.47;;;2.03;;
59374;SDS011;45172;55.006;73.460;2024-03-02T14:21:15;1.63;;;1.20;;
59374;SDS011;45172;55.006;73.460;2024-03-02T14:23:41;2.38;;;1.30;;
59374;SDS011;45172;55.006;73.460;2024-03-02T14:26:07;4.03;;;2.00;;
59374;SDS011;45172;55.006;73.460;2024-03-02T14:28:34;8.00;;;3.58;;
59374;SDS011;45172;55.006;73.460;2024-03-02T14:31:00;15.48;;;4.75;;
59374;SDS011;45172;55.006;73.460;2024-03-02T14:33:27;12.60;;;4.55;;